sensor_id;sensor_type;location;lat;lon;timestamp;P1;durP1;ratioP1;P2;durP2;ratioP2
20629;SDS011;17386;43.846;25.950;2022-11-20T00:01:42;50.92;;;22.90;;
20629;SDS011;17386;43.846;25.950;2022-11-20T00:04:08;51.30;;;23.00;;
20629;SDS011;17386;43.846;25.950;2022-11-20T00:06:33;54.47;;;23.13;;
20629;SDS011;17386;43.846;25.950;2022-11-20T00:08:59;51.55;;;22.63;;
20629;SDS011;17386;43.846;25.950;2022-11-20T00:11:27;49.60;;;22.67;;
20629;SDS011;17386;43.846;25.950;2022-11-20T00:13:54;54.05;;;23.27;;
20629;SDS011;17386;43.846;25.950;2022-11-20T00:16:25;54.78;;;23.65;;
20629;SDS011;17386;43.846;25.950;2022-11-20T00:18:52;57.28;;;24.60;;
20629;SDS011;17386;43.846;25.950;2022-11-20T00:21:19;54.83;;;23.23;;
20629;SDS011;17386;43.846;25.950;2022-11-20T00:23:50;55.83;;;23.60;;
20629;SDS011;17386;43.846;25.950;2022-11-20T00:26:17;53.65;;;22.83;;
20629;SDS011;17386;43.846;25.950;2022-11-20T00:28:44;56.58;;;25.42;;
20629;SDS011;17386;43.846;25.950;2022-11-20T00:31:14;56.92;;;24.13;;
20629;SDS011;17386;43.846;25.950;2022-11-20T00:33:41;54.72;;;23.05;;
20629;SDS011;17386;43.846;25.950;2022-11-20T00:36:08;53.45;;;23.10;;
20629;SDS011;17386;43.846;25.950;2022-11-20T00:38:36;57.60;;;23.15;;
20629;SDS011;17386;43.846;25.950;2022-11-20T00:41:03;51.22;;;22.30;;
20629;SDS011;17386;43.846;25.950;2022-11-20T00:43:32;51.95;;;23.15;;
20629;SDS011;17386;43.846;25.950;2022-11-20T00:45:58;51.80;;;22.63;;
20629;SDS011;17386;43.846;25.950;2022-11-20T00:48:28;52.72;;;22.42;;
20629;SDS011;17386;43.846;25.950;2022-11-20T00:50:53;54.28;;;22.67;;
20629;SDS011;17386;43.846;25.950;2022-11-20T00:53:19;51.90;;;21.25;;
20629;SDS011;17386;43.846;25.950;2022-11-20T00:56:07;53.15;;;21.63;;
20629;SDS011;17386;43.846;25.950;2022-11-20T00:58:36;48.58;;;20.75;;
20629;SDS011;17386;43.846;25.950;2022-11-20T01:01:07;51.10;;;21.60;;
20629;SDS011;17386;43.846;25.950;2022-11-20T01:03:37;51.80;;;22.02;;
20629;SDS011;17386;43.846;25.950;2022-11-20T01:06:05;48.95;;;21.17;;
20629;SDS011;17386;43.846;25.950;2022-11-20T01:08:33;50.80;;;20.45;;
20629;SDS011;17386;43.846;25.950;2022-11-20T01:11:00;50.72;;;22.35;;
20629;SDS011;17386;43.846;25.950;2022-11-20T01:13:49;48.92;;;21.00;;
20629;SDS011;17386;43.846;25.950;2022-11-20T01:16:19;53.35;;;20.75;;
20629;SDS011;17386;43.846;25.950;2022-11-20T01:18:50;60.15;;;22.75;;
20629;SDS011;17386;43.846;25.950;2022-11-20T01:21:18;50.83;;;22.95;;
20629;SDS011;17386;43.846;25.950;2022-11-20T01:23:45;51.15;;;21.88;;
20629;SDS011;17386;43.846;25.950;2022-11-20T01:26:13;47.25;;;21.13;;
20629;SDS011;17386;43.846;25.950;2022-11-20T01:28:40;49.88;;;19.55;;
20629;SDS011;17386;43.846;25.950;2022-11-20T01:31:11;49.00;;;20.50;;
20629;SDS011;17386;43.846;25.950;2022-11-20T01:33:54;50.08;;;20.92;;
20629;SDS011;17386;43.846;25.950;2022-11-20T01:38:50;49.35;;;21.02;;
20629;SDS011;17386;43.846;25.950;2022-11-20T01:41:18;45.83;;;19.13;;
20629;SDS011;17386;43.846;25.950;2022-11-20T01:44:02;54.97;;;20.80;;
20629;SDS011;17386;43.846;25.950;2022-11-20T01:46:29;50.78;;;19.60;;
20629;SDS011;17386;43.846;25.950;2022-11-20T01:51:45;48.95;;;20.35;;
20629;SDS011;17386;43.846;25.950;2022-11-20T01:54:24;53.38;;;19.73;;
20629;SDS011;17386;43.846;25.950;2022-11-20T01:57:00;52.88;;;20.40;;
20629;SDS011;17386;43.846;25.950;2022-11-20T01:59:26;49.13;;;19.05;;
20629;SDS011;17386;43.846;25.950;2022-11-20T02:01:53;52.75;;;21.63;;
20629;SDS011;17386;43.846;25.950;2022-11-20T02:04:19;58.70;;;22.27;;
20629;SDS011;17386;43.846;25.950;2022-11-20T02:06:47;54.38;;;22.15;;
20629;SDS011;17386;43.846;25.950;2022-11-20T02:09:16;55.03;;;19.90;;
20629;SDS011;17386;43.846;25.950;2022-11-20T02:11:41;50.25;;;17.90;;
20629;SDS011;17386;43.846;25.950;2022-11-20T02:14:07;42.78;;;16.50;;
20629;SDS011;17386;43.846;25.950;2022-11-20T02:16:36;43.88;;;16.33;;
20629;SDS011;17386;43.846;25.950;2022-11-20T02:19:06;43.08;;;16.35;;
20629;SDS011;17386;43.846;25.950;2022-11-20T02:24:14;34.83;;;15.70;;
20629;SDS011;17386;43.846;25.950;2022-11-20T02:26:57;43.58;;;15.43;;
20629;SDS011;17386;43.846;25.950;2022-11-20T02:32:16;40.78;;;14.93;;
20629;SDS011;17386;43.846;25.950;2022-11-20T02:34:46;43.45;;;18.20;;
20629;SDS011;17386;43.846;25.950;2022-11-20T02:37:11;44.40;;;17.17;;
20629;SDS011;17386;43.846;25.950;2022-11-20T02:39:37;46.42;;;16.20;;
20629;SDS011;17386;43.846;25.950;2022-11-20T02:42:03;46.17;;;17.08;;
20629;SDS011;17386;43.846;25.950;2022-11-20T02:44:28;39.13;;;15.95;;
20629;SDS011;17386;43.846;25.950;2022-11-20T02:46:56;40.88;;;15.68;;
20629;SDS011;17386;43.846;25.950;2022-11-20T02:49:23;39.25;;;15.98;;
20629;SDS011;17386;43.846;25.950;2022-11-20T02:51:49;37.70;;;15.15;;
20629;SDS011;17386;43.846;25.950;2022-11-20T02:54:14;39.47;;;15.43;;
20629;SDS011;17386;43.846;25.950;2022-11-20T02:56:39;45.45;;;17.02;;
20629;SDS011;17386;43.846;25.950;2022-11-20T02:59:05;41.05;;;15.38;;
20629;SDS011;17386;43.846;25.950;2022-11-20T03:01:31;43.20;;;15.85;;
20629;SDS011;17386;43.846;25.950;2022-11-20T03:03:56;41.38;;;16.35;;
20629;SDS011;17386;43.846;25.950;2022-11-20T03:06:21;44.83;;;16.63;;
20629;SDS011;17386;43.846;25.950;2022-11-20T03:08:47;41.10;;;15.50;;
20629;SDS011;17386;43.846;25.950;2022-11-20T03:11:13;45.30;;;17.40;;
20629;SDS011;17386;43.846;25.950;2022-11-20T03:13:38;43.83;;;16.63;;
20629;SDS011;17386;43.846;25.950;2022-11-20T03:16:05;43.00;;;17.15;;
20629;SDS011;17386;43.846;25.950;2022-11-20T03:20:57;47.07;;;17.47;;
20629;SDS011;17386;43.846;25.950;2022-11-20T03:23:24;54.00;;;18.95;;
20629;SDS011;17386;43.846;25.950;2022-11-20T03:25:50;51.72;;;18.73;;
20629;SDS011;17386;43.846;25.950;2022-11-20T03:28:15;42.10;;;15.50;;
20629;SDS011;17386;43.846;25.950;2022-11-20T03:30:40;53.03;;;17.27;;
20629;SDS011;17386;43.846;25.950;2022-11-20T03:33:06;50.42;;;18.83;;
20629;SDS011;17386;43.846;25.950;2022-11-20T03:35:31;44.92;;;17.45;;
20629;SDS011;17386;43.846;25.950;2022-11-20T03:37:57;48.83;;;18.50;;
20629;SDS011;17386;43.846;25.950;2022-11-20T03:40:23;49.67;;;18.05;;
20629;SDS011;17386;43.846;25.950;2022-11-20T03:42:48;54.60;;;18.25;;
20629;SDS011;17386;43.846;25.950;2022-11-20T03:45:14;42.47;;;16.83;;
20629;SDS011;17386;43.846;25.950;2022-11-20T03:50:07;52.33;;;18.58;;
20629;SDS011;17386;43.846;25.950;2022-11-20T03:52:33;60.22;;;20.58;;
20629;SDS011;17386;43.846;25.950;2022-11-20T03:54:59;50.53;;;19.23;;
20629;SDS011;17386;43.846;25.950;2022-11-20T03:57:24;56.33;;;20.30;;
20629;SDS011;17386;43.846;25.950;2022-11-20T03:59:49;46.60;;;17.20;;
20629;SDS011;17386;43.846;25.950;2022-11-20T04:02:15;47.17;;;18.15;;
20629;SDS011;17386;43.846;25.950;2022-11-20T04:04:40;43.50;;;18.73;;
20629;SDS011;17386;43.846;25.950;2022-11-20T04:07:05;52.35;;;19.00;;
20629;SDS011;17386;43.846;25.950;2022-11-20T04:09:31;45.88;;;17.38;;
20629;SDS011;17386;43.846;25.950;2022-11-20T04:11:56;49.42;;;18.25;;
20629;SDS011;17386;43.846;25.950;2022-11-20T04:14:22;52.00;;;19.50;;
20629;SDS011;17386;43.846;25.950;2022-11-20T04:16:47;46.83;;;18.00;;
20629;SDS011;17386;43.846;25.950;2022-11-20T04:19:14;48.83;;;19.05;;
20629;SDS011;17386;43.846;25.950;2022-11-20T04:21:40;49.00;;;17.83;;
20629;SDS011;17386;43.846;25.950;2022-11-20T04:24:06;51.25;;;20.95;;
20629;SDS011;17386;43.846;25.950;2022-11-20T04:26:32;54.00;;;20.27;;
20629;SDS011;17386;43.846;25.950;2022-11-20T04:28:58;59.40;;;22.30;;
20629;SDS011;17386;43.846;25.950;2022-11-20T04:31:27;54.15;;;20.73;;
20629;SDS011;17386;43.846;25.950;2022-11-20T04:33:54;62.63;;;21.58;;
20629;SDS011;17386;43.846;25.950;2022-11-20T04:36:24;54.90;;;19.50;;
20629;SDS011;17386;43.846;25.950;2022-11-20T04:38:53;58.42;;;20.65;;
20629;SDS011;17386;43.846;25.950;2022-11-20T04:41:27;58.22;;;20.20;;
20629;SDS011;17386;43.846;25.950;2022-11-20T04:43:55;62.63;;;22.95;;
20629;SDS011;17386;43.846;25.950;2022-11-20T04:46:24;67.45;;;23.67;;
20629;SDS011;17386;43.846;25.950;2022-11-20T04:48:51;60.42;;;23.38;;
20629;SDS011;17386;43.846;25.950;2022-11-20T04:51:16;80.63;;;24.40;;
20629;SDS011;17386;43.846;25.950;2022-11-20T04:53:42;60.42;;;22.23;;
20629;SDS011;17386;43.846;25.950;2022-11-20T04:56:08;58.75;;;21.20;;
20629;SDS011;17386;43.846;25.950;2022-11-20T04:58:35;57.13;;;22.52;;
20629;SDS011;17386;43.846;25.950;2022-11-20T05:01:22;53.15;;;19.65;;
20629;SDS011;17386;43.846;25.950;2022-11-20T05:03:47;50.35;;;19.00;;
20629;SDS011;17386;43.846;25.950;2022-11-20T05:06:14;56.55;;;20.52;;
20629;SDS011;17386;43.846;25.950;2022-11-20T05:08:42;59.30;;;21.20;;
20629;SDS011;17386;43.846;25.950;2022-11-20T05:11:11;54.47;;;20.30;;
20629;SDS011;17386;43.846;25.950;2022-11-20T05:13:38;60.65;;;19.20;;
20629;SDS011;17386;43.846;25.950;2022-11-20T05:16:05;55.70;;;20.40;;
20629;SDS011;17386;43.846;25.950;2022-11-20T05:18:33;62.17;;;21.80;;
20629;SDS011;17386;43.846;25.950;2022-11-20T05:20:59;59.17;;;22.45;;
20629;SDS011;17386;43.846;25.950;2022-11-20T05:23:25;60.17;;;21.77;;
20629;SDS011;17386;43.846;25.950;2022-11-20T05:25:52;59.47;;;22.05;;
20629;SDS011;17386;43.846;25.950;2022-11-20T05:28:18;63.03;;;20.80;;
20629;SDS011;17386;43.846;25.950;2022-11-20T05:30:43;65.63;;;22.48;;
20629;SDS011;17386;43.846;25.950;2022-11-20T05:33:09;54.63;;;21.38;;
20629;SDS011;17386;43.846;25.950;2022-11-20T05:35:34;60.72;;;20.00;;
20629;SDS011;17386;43.846;25.950;2022-11-20T05:38:00;65.57;;;22.63;;
20629;SDS011;17386;43.846;25.950;2022-11-20T05:40:25;63.13;;;20.40;;
20629;SDS011;17386;43.846;25.950;2022-11-20T05:42:50;55.40;;;20.50;;
20629;SDS011;17386;43.846;25.950;2022-11-20T05:45:16;56.70;;;19.02;;
20629;SDS011;17386;43.846;25.950;2022-11-20T05:47:41;54.80;;;18.27;;
20629;SDS011;17386;43.846;25.950;2022-11-20T05:50:07;56.40;;;19.98;;
20629;SDS011;17386;43.846;25.950;2022-11-20T05:52:32;56.83;;;19.30;;
20629;SDS011;17386;43.846;25.950;2022-11-20T05:54:58;47.10;;;18.15;;
20629;SDS011;17386;43.846;25.950;2022-11-20T05:57:23;45.65;;;18.55;;
20629;SDS011;17386;43.846;25.950;2022-11-20T05:59:48;48.45;;;18.13;;
20629;SDS011;17386;43.846;25.950;2022-11-20T06:02:14;45.28;;;16.45;;
20629;SDS011;17386;43.846;25.950;2022-11-20T06:04:39;46.88;;;16.33;;
20629;SDS011;17386;43.846;25.950;2022-11-20T06:07:05;47.58;;;16.60;;
20629;SDS011;17386;43.846;25.950;2022-11-20T06:09:31;43.88;;;15.65;;
20629;SDS011;17386;43.846;25.950;2022-11-20T06:11:56;40.25;;;15.57;;
20629;SDS011;17386;43.846;25.950;2022-11-20T06:14:22;47.42;;;17.23;;
20629;SDS011;17386;43.846;25.950;2022-11-20T06:16:47;39.60;;;14.98;;
20629;SDS011;17386;43.846;25.950;2022-11-20T06:19:13;38.20;;;15.38;;
20629;SDS011;17386;43.846;25.950;2022-11-20T06:21:38;42.35;;;15.85;;
20629;SDS011;17386;43.846;25.950;2022-11-20T06:24:04;49.33;;;17.15;;
20629;SDS011;17386;43.846;25.950;2022-11-20T06:26:29;33.28;;;12.50;;
20629;SDS011;17386;43.846;25.950;2022-11-20T06:28:55;42.30;;;16.73;;
20629;SDS011;17386;43.846;25.950;2022-11-20T06:31:21;38.05;;;14.77;;
20629;SDS011;17386;43.846;25.950;2022-11-20T06:33:48;43.75;;;13.57;;
20629;SDS011;17386;43.846;25.950;2022-11-20T06:36:15;38.50;;;13.88;;
20629;SDS011;17386;43.846;25.950;2022-11-20T06:38:42;40.90;;;14.68;;
20629;SDS011;17386;43.846;25.950;2022-11-20T06:41:10;39.17;;;13.05;;
20629;SDS011;17386;43.846;25.950;2022-11-20T06:43:38;43.60;;;13.40;;
20629;SDS011;17386;43.846;25.950;2022-11-20T06:46:03;40.63;;;15.38;;
20629;SDS011;17386;43.846;25.950;2022-11-20T06:48:29;47.88;;;15.25;;
20629;SDS011;17386;43.846;25.950;2022-11-20T06:50:55;36.45;;;13.63;;
20629;SDS011;17386;43.846;25.950;2022-11-20T06:53:21;42.60;;;14.25;;
20629;SDS011;17386;43.846;25.950;2022-11-20T06:55:47;40.38;;;14.30;;
20629;SDS011;17386;43.846;25.950;2022-11-20T06:58:14;40.50;;;13.52;;
20629;SDS011;17386;43.846;25.950;2022-11-20T07:00:40;30.85;;;12.05;;
20629;SDS011;17386;43.846;25.950;2022-11-20T07:03:06;30.88;;;10.70;;
20629;SDS011;17386;43.846;25.950;2022-11-20T07:05:34;34.53;;;12.80;;
20629;SDS011;17386;43.846;25.950;2022-11-20T07:08:00;32.35;;;12.50;;
20629;SDS011;17386;43.846;25.950;2022-11-20T07:10:27;38.13;;;12.98;;
20629;SDS011;17386;43.846;25.950;2022-11-20T07:12:52;40.58;;;12.98;;
20629;SDS011;17386;43.846;25.950;2022-11-20T07:15:19;36.22;;;13.15;;
20629;SDS011;17386;43.846;25.950;2022-11-20T07:17:45;34.35;;;12.30;;
20629;SDS011;17386;43.846;25.950;2022-11-20T07:20:11;34.08;;;13.55;;
20629;SDS011;17386;43.846;25.950;2022-11-20T07:22:40;33.05;;;13.02;;
20629;SDS011;17386;43.846;25.950;2022-11-20T07:25:06;36.58;;;13.23;;
20629;SDS011;17386;43.846;25.950;2022-11-20T07:27:32;33.33;;;11.63;;
20629;SDS011;17386;43.846;25.950;2022-11-20T07:29:57;28.38;;;11.45;;
20629;SDS011;17386;43.846;25.950;2022-11-20T07:32:23;31.92;;;12.30;;
20629;SDS011;17386;43.846;25.950;2022-11-20T07:34:49;35.28;;;11.50;;
20629;SDS011;17386;43.846;25.950;2022-11-20T07:37:15;32.70;;;11.43;;
20629;SDS011;17386;43.846;25.950;2022-11-20T07:39:41;31.88;;;11.63;;
20629;SDS011;17386;43.846;25.950;2022-11-20T07:42:06;44.38;;;14.13;;
20629;SDS011;17386;43.846;25.950;2022-11-20T07:44:32;36.03;;;12.40;;
20629;SDS011;17386;43.846;25.950;2022-11-20T07:46:58;32.85;;;13.05;;
20629;SDS011;17386;43.846;25.950;2022-11-20T07:49:23;43.05;;;13.07;;
20629;SDS011;17386;43.846;25.950;2022-11-20T07:51:52;33.97;;;12.70;;
20629;SDS011;17386;43.846;25.950;2022-11-20T07:54:19;40.67;;;13.80;;
20629;SDS011;17386;43.846;25.950;2022-11-20T07:56:45;34.45;;;12.20;;
20629;SDS011;17386;43.846;25.950;2022-11-20T07:59:11;38.42;;;13.63;;
20629;SDS011;17386;43.846;25.950;2022-11-20T08:01:37;43.97;;;14.70;;
20629;SDS011;17386;43.846;25.950;2022-11-20T08:04:03;35.80;;;13.13;;
20629;SDS011;17386;43.846;25.950;2022-11-20T08:06:28;43.17;;;14.52;;
20629;SDS011;17386;43.846;25.950;2022-11-20T08:08:54;38.88;;;13.27;;
20629;SDS011;17386;43.846;25.950;2022-11-20T08:11:19;38.90;;;14.40;;
20629;SDS011;17386;43.846;25.950;2022-11-20T08:14:03;42.03;;;14.77;;
20629;SDS011;17386;43.846;25.950;2022-11-20T08:19:10;32.97;;;12.20;;
20629;SDS011;17386;43.846;25.950;2022-11-20T08:21:36;32.75;;;11.88;;
20629;SDS011;17386;43.846;25.950;2022-11-20T08:24:01;38.67;;;12.15;;
20629;SDS011;17386;43.846;25.950;2022-11-20T08:26:27;28.92;;;10.80;;
20629;SDS011;17386;43.846;25.950;2022-11-20T08:28:53;33.45;;;10.48;;
20629;SDS011;17386;43.846;25.950;2022-11-20T08:31:19;28.83;;;11.32;;
20629;SDS011;17386;43.846;25.950;2022-11-20T08:33:45;30.65;;;11.32;;
20629;SDS011;17386;43.846;25.950;2022-11-20T08:36:11;31.38;;;11.80;;
20629;SDS011;17386;43.846;25.950;2022-11-20T08:38:36;33.75;;;12.85;;
20629;SDS011;17386;43.846;25.950;2022-11-20T08:41:02;32.63;;;11.38;;
20629;SDS011;17386;43.846;25.950;2022-11-20T08:43:47;32.92;;;12.07;;
20629;SDS011;17386;43.846;25.950;2022-11-20T08:46:13;32.03;;;11.85;;
20629;SDS011;17386;43.846;25.950;2022-11-20T08:48:39;33.95;;;11.95;;
20629;SDS011;17386;43.846;25.950;2022-11-20T08:51:04;31.05;;;11.63;;
20629;SDS011;17386;43.846;25.950;2022-11-20T08:53:30;27.80;;;11.50;;
20629;SDS011;17386;43.846;25.950;2022-11-20T08:55:58;34.40;;;11.77;;
20629;SDS011;17386;43.846;25.950;2022-11-20T08:58:24;32.67;;;12.10;;
20629;SDS011;17386;43.846;25.950;2022-11-20T09:00:50;32.45;;;12.70;;
20629;SDS011;17386;43.846;25.950;2022-11-20T09:03:16;33.90;;;13.48;;
20629;SDS011;17386;43.846;25.950;2022-11-20T09:05:41;35.30;;;14.32;;
20629;SDS011;17386;43.846;25.950;2022-11-20T09:08:07;39.08;;;14.80;;
20629;SDS011;17386;43.846;25.950;2022-11-20T09:10:33;32.58;;;13.73;;
20629;SDS011;17386;43.846;25.950;2022-11-20T09:12:58;36.00;;;14.60;;
20629;SDS011;17386;43.846;25.950;2022-11-20T09:15:24;35.60;;;13.70;;
20629;SDS011;17386;43.846;25.950;2022-11-20T09:17:51;29.00;;;12.80;;
20629;SDS011;17386;43.846;25.950;2022-11-20T09:20:21;31.25;;;14.77;;
20629;SDS011;17386;43.846;25.950;2022-11-20T09:22:46;33.75;;;13.43;;
20629;SDS011;17386;43.846;25.950;2022-11-20T09:25:12;30.73;;;12.52;;
20629;SDS011;17386;43.846;25.950;2022-11-20T09:27:38;29.65;;;13.55;;
20629;SDS011;17386;43.846;25.950;2022-11-20T09:30:04;31.10;;;12.57;;
20629;SDS011;17386;43.846;25.950;2022-11-20T09:32:29;33.00;;;12.80;;
20629;SDS011;17386;43.846;25.950;2022-11-20T09:34:55;31.50;;;13.40;;
20629;SDS011;17386;43.846;25.950;2022-11-20T09:37:20;26.80;;;11.85;;
20629;SDS011;17386;43.846;25.950;2022-11-20T09:39:46;31.38;;;13.18;;
20629;SDS011;17386;43.846;25.950;2022-11-20T09:42:22;29.38;;;12.48;;
20629;SDS011;17386;43.846;25.950;2022-11-20T09:48:08;29.98;;;12.23;;
20629;SDS011;17386;43.846;25.950;2022-11-20T09:55:55;32.38;;;13.55;;
20629;SDS011;17386;43.846;25.950;2022-11-20T10:01:14;29.30;;;12.38;;
20629;SDS011;17386;43.846;25.950;2022-11-20T10:03:49;28.95;;;11.48;;
20629;SDS011;17386;43.846;25.950;2022-11-20T10:06:19;25.90;;;11.52;;
20629;SDS011;17386;43.846;25.950;2022-11-20T10:11:41;29.98;;;12.10;;
20629;SDS011;17386;43.846;25.950;2022-11-20T10:16:58;29.25;;;12.90;;
20629;SDS011;17386;43.846;25.950;2022-11-20T10:22:07;27.23;;;12.85;;
20629;SDS011;17386;43.846;25.950;2022-11-20T10:27:44;39.80;;;14.88;;
20629;SDS011;17386;43.846;25.950;2022-11-20T10:30:14;30.10;;;14.13;;
20629;SDS011;17386;43.846;25.950;2022-11-20T10:32:44;28.73;;;12.32;;
20629;SDS011;17386;43.846;25.950;2022-11-20T10:35:28;28.02;;;12.18;;
20629;SDS011;17386;43.846;25.950;2022-11-20T10:38:06;30.25;;;12.57;;
20629;SDS011;17386;43.846;25.950;2022-11-20T10:40:43;31.23;;;12.30;;
20629;SDS011;17386;43.846;25.950;2022-11-20T10:43:15;28.77;;;12.95;;
20629;SDS011;17386;43.846;25.950;2022-11-20T10:46:12;34.20;;;12.55;;
20629;SDS011;17386;43.846;25.950;2022-11-20T10:48:38;32.80;;;13.60;;
20629;SDS011;17386;43.846;25.950;2022-11-20T11:01:41;35.95;;;14.23;;
20629;SDS011;17386;43.846;25.950;2022-11-20T11:09:58;40.95;;;15.38;;
20629;SDS011;17386;43.846;25.950;2022-11-20T11:12:37;47.95;;;16.20;;
20629;SDS011;17386;43.846;25.950;2022-11-20T11:15:12;37.92;;;14.57;;
20629;SDS011;17386;43.846;25.950;2022-11-20T11:17:46;41.53;;;16.20;;
20629;SDS011;17386;43.846;25.950;2022-11-20T11:20:16;42.55;;;15.63;;
20629;SDS011;17386;43.846;25.950;2022-11-20T11:25:28;40.13;;;16.15;;
20629;SDS011;17386;43.846;25.950;2022-11-20T11:27:59;39.55;;;15.63;;
20629;SDS011;17386;43.846;25.950;2022-11-20T11:30:29;39.10;;;14.88;;
20629;SDS011;17386;43.846;25.950;2022-11-20T11:33:06;40.85;;;16.42;;
20629;SDS011;17386;43.846;25.950;2022-11-20T11:35:38;46.30;;;17.05;;
20629;SDS011;17386;43.846;25.950;2022-11-20T11:38:14;43.05;;;16.73;;
20629;SDS011;17386;43.846;25.950;2022-11-20T11:40:44;40.60;;;16.23;;
20629;SDS011;17386;43.846;25.950;2022-11-20T11:43:18;44.85;;;17.63;;
20629;SDS011;17386;43.846;25.950;2022-11-20T11:46:19;44.15;;;17.02;;
20629;SDS011;17386;43.846;25.950;2022-11-20T11:48:55;45.10;;;16.40;;
20629;SDS011;17386;43.846;25.950;2022-11-20T11:51:25;46.30;;;17.02;;
20629;SDS011;17386;43.846;25.950;2022-11-20T11:53:54;44.35;;;17.90;;
20629;SDS011;17386;43.846;25.950;2022-11-20T11:56:22;46.30;;;18.15;;
20629;SDS011;17386;43.846;25.950;2022-11-20T11:58:49;43.17;;;17.38;;
20629;SDS011;17386;43.846;25.950;2022-11-20T12:04:23;52.42;;;21.42;;
20629;SDS011;17386;43.846;25.950;2022-11-20T12:07:03;57.10;;;19.90;;
20629;SDS011;17386;43.846;25.950;2022-11-20T12:09:38;48.70;;;19.67;;
20629;SDS011;17386;43.846;25.950;2022-11-20T12:12:13;50.60;;;19.52;;
20629;SDS011;17386;43.846;25.950;2022-11-20T12:14:46;50.65;;;20.42;;
20629;SDS011;17386;43.846;25.950;2022-11-20T12:17:15;51.95;;;20.83;;
20629;SDS011;17386;43.846;25.950;2022-11-20T12:19:40;51.17;;;20.23;;
20629;SDS011;17386;43.846;25.950;2022-11-20T12:22:29;50.08;;;21.75;;
20629;SDS011;17386;43.846;25.950;2022-11-20T12:25:34;43.63;;;18.63;;
20629;SDS011;17386;43.846;25.950;2022-11-20T12:31:01;50.47;;;20.13;;
20629;SDS011;17386;43.846;25.950;2022-11-20T12:47:25;52.22;;;21.85;;
20629;SDS011;17386;43.846;25.950;2022-11-20T12:50:15;59.83;;;21.30;;
20629;SDS011;17386;43.846;25.950;2022-11-20T12:52:48;52.97;;;21.17;;
20629;SDS011;17386;43.846;25.950;2022-11-20T12:55:28;54.72;;;20.25;;
20629;SDS011;17386;43.846;25.950;2022-11-20T13:01:02;56.25;;;20.25;;
20629;SDS011;17386;43.846;25.950;2022-11-20T13:06:59;54.47;;;20.83;;
20629;SDS011;17386;43.846;25.950;2022-11-20T13:09:30;52.08;;;21.55;;
20629;SDS011;17386;43.846;25.950;2022-11-20T13:12:04;55.88;;;19.80;;
20629;SDS011;17386;43.846;25.950;2022-11-20T13:17:06;53.58;;;22.33;;
20629;SDS011;17386;43.846;25.950;2022-11-20T13:19:45;61.80;;;23.55;;
20629;SDS011;17386;43.846;25.950;2022-11-20T13:22:23;58.38;;;23.08;;
20629;SDS011;17386;43.846;25.950;2022-11-20T13:24:53;54.17;;;22.48;;
20629;SDS011;17386;43.846;25.950;2022-11-20T13:27:19;55.88;;;23.48;;
20629;SDS011;17386;43.846;25.950;2022-11-20T13:29:57;58.25;;;25.10;;
20629;SDS011;17386;43.846;25.950;2022-11-20T13:32:47;55.10;;;23.75;;
20629;SDS011;17386;43.846;25.950;2022-11-20T13:38:00;57.45;;;22.88;;
20629;SDS011;17386;43.846;25.950;2022-11-20T13:40:26;59.03;;;23.58;;
20629;SDS011;17386;43.846;25.950;2022-11-20T13:42:55;52.58;;;21.90;;
20629;SDS011;17386;43.846;25.950;2022-11-20T13:45:32;55.15;;;22.00;;
20629;SDS011;17386;43.846;25.950;2022-11-20T13:48:02;55.65;;;21.65;;
20629;SDS011;17386;43.846;25.950;2022-11-20T13:50:40;56.88;;;22.33;;
20629;SDS011;17386;43.846;25.950;2022-11-20T13:53:29;52.90;;;21.73;;
20629;SDS011;17386;43.846;25.950;2022-11-20T13:56:09;56.40;;;21.25;;
20629;SDS011;17386;43.846;25.950;2022-11-20T14:01:35;54.08;;;20.73;;
20629;SDS011;17386;43.846;25.950;2022-11-20T14:04:08;54.95;;;21.27;;
20629;SDS011;17386;43.846;25.950;2022-11-20T14:06:38;54.70;;;21.48;;
20629;SDS011;17386;43.846;25.950;2022-11-20T14:09:11;52.83;;;21.33;;
20629;SDS011;17386;43.846;25.950;2022-11-20T14:11:45;55.63;;;22.00;;
20629;SDS011;17386;43.846;25.950;2022-11-20T14:16:44;53.75;;;21.92;;
20629;SDS011;17386;43.846;25.950;2022-11-20T14:19:23;54.00;;;20.67;;
20629;SDS011;17386;43.846;25.950;2022-11-20T14:24:46;51.08;;;20.95;;
20629;SDS011;17386;43.846;25.950;2022-11-20T14:27:17;51.40;;;21.20;;
20629;SDS011;17386;43.846;25.950;2022-11-20T14:29:45;47.40;;;18.70;;
20629;SDS011;17386;43.846;25.950;2022-11-20T14:32:14;47.10;;;17.75;;
20629;SDS011;17386;43.846;25.950;2022-11-20T14:34:43;54.53;;;19.13;;
20629;SDS011;17386;43.846;25.950;2022-11-20T14:37:11;42.10;;;18.13;;
20629;SDS011;17386;43.846;25.950;2022-11-20T14:39:42;49.75;;;19.13;;
20629;SDS011;17386;43.846;25.950;2022-11-20T14:42:17;50.33;;;19.90;;
20629;SDS011;17386;43.846;25.950;2022-11-20T14:44:44;52.63;;;20.77;;
20629;SDS011;17386;43.846;25.950;2022-11-20T14:47:11;45.60;;;19.27;;
20629;SDS011;17386;43.846;25.950;2022-11-20T14:49:40;49.30;;;19.10;;
20629;SDS011;17386;43.846;25.950;2022-11-20T14:52:25;50.15;;;20.50;;
20629;SDS011;17386;43.846;25.950;2022-11-20T14:54:56;41.70;;;18.45;;
20629;SDS011;17386;43.846;25.950;2022-11-20T14:57:27;46.75;;;19.15;;
20629;SDS011;17386;43.846;25.950;2022-11-20T15:02:52;41.33;;;18.85;;
20629;SDS011;17386;43.846;25.950;2022-11-20T15:05:18;40.58;;;17.63;;
20629;SDS011;17386;43.846;25.950;2022-11-20T15:08:04;43.72;;;18.25;;
20629;SDS011;17386;43.846;25.950;2022-11-20T15:10:34;38.70;;;16.40;;
20629;SDS011;17386;43.846;25.950;2022-11-20T15:13:00;37.15;;;17.00;;
20629;SDS011;17386;43.846;25.950;2022-11-20T15:18:13;38.50;;;17.58;;
20629;SDS011;17386;43.846;25.950;2022-11-20T15:21:10;41.83;;;18.05;;
20629;SDS011;17386;43.846;25.950;2022-11-20T15:23:40;40.30;;;17.95;;
20629;SDS011;17386;43.846;25.950;2022-11-20T15:26:07;43.95;;;19.63;;
20629;SDS011;17386;43.846;25.950;2022-11-20T15:28:41;45.10;;;19.52;;
20629;SDS011;17386;43.846;25.950;2022-11-20T15:33:37;36.22;;;15.57;;
20629;SDS011;17386;43.846;25.950;2022-11-20T15:36:03;42.90;;;19.45;;
20629;SDS011;17386;43.846;25.950;2022-11-20T15:38:29;52.60;;;22.08;;
20629;SDS011;17386;43.846;25.950;2022-11-20T15:40:55;56.15;;;25.52;;
20629;SDS011;17386;43.846;25.950;2022-11-20T15:43:20;38.30;;;19.17;;
20629;SDS011;17386;43.846;25.950;2022-11-20T15:45:56;40.92;;;18.67;;
20629;SDS011;17386;43.846;25.950;2022-11-20T15:53:39;40.53;;;18.73;;
20629;SDS011;17386;43.846;25.950;2022-11-20T15:56:09;39.38;;;19.63;;
20629;SDS011;17386;43.846;25.950;2022-11-20T15:58:37;43.15;;;19.42;;
20629;SDS011;17386;43.846;25.950;2022-11-20T16:01:03;45.08;;;20.55;;
20629;SDS011;17386;43.846;25.950;2022-11-20T16:03:28;49.70;;;23.55;;
20629;SDS011;17386;43.846;25.950;2022-11-20T16:05:55;52.67;;;24.30;;
20629;SDS011;17386;43.846;25.950;2022-11-20T16:08:20;55.85;;;24.90;;
20629;SDS011;17386;43.846;25.950;2022-11-20T16:10:46;44.05;;;20.80;;
20629;SDS011;17386;43.846;25.950;2022-11-20T16:13:12;46.28;;;19.65;;